Terminal Aerodrome Forecast
Issued by NWS Oklahoma City, OK

Home | Current Version | Previous Version | Text Only | Print | Product List | Glossary On
Versions: 1 2 3 4 5 6 7 8 9 10 11 12 13 14 15 16 17 18 19
000
FTUS44 KOUN 240525
TAFOUN
TAF
KOUN 240525Z 2406/2506 35006KT 2SM -DZ BR OVC004
      TEMPO 2408/2412 1SM -DZ BR VV002
     FM241400 32008KT 1SM TSRA OVC006CB
     FM241800 28010KT P6SM OVC008
     FM242300 32012KT P6SM BKN015
     FM250300 VRB04KT P6SM SKC=

USA.gov is the U.S. government's official web portal to all federal, state and local government web resources and services.